Time;durP1;ratioP1;P1;durP2;ratioP2;P2;SDS_P1;SDS_P2;PMS_P1;PMS_P2;Temp;Humidity;BMP_temperature;BMP_pressure;BME280_temperature;BME280_humidity;BME280_pressure;Samples;Min_cycle;Max_cycle;Signal;HPM_P1;HPM_P2
2022/03/15 00:02:16;;;;;;;19.25;8.43;;;5.10;88.70;;;;;;5096460;28;20405;-78
2022/03/15 00:04:41;;;;;;;17.60;8.82;;;5.20;88.80;;;;;;5079314;28;20048;-78
2022/03/15 00:07:11;;;;;;;17.98;9.63;;;5.20;88.50;;;;;;5079216;28;20075;-78
2022/03/15 00:09:37;;;;;;;20.90;10.13;;;5.20;88.80;;;;;;5078751;28;20135;-78
2022/03/15 00:12:08;;;;;;;27.85;12.13;;;5.20;89.10;;;;;;5079141;28;20153;-78
2022/03/15 00:14:36;;;;;;;17.67;8.95;;;5.10;88.90;;;;;;5096017;28;20039;-78
2022/03/15 00:17:03;;;;;;;20.95;9.68;;;5.10;88.70;;;;;;5079182;28;20438;-78
2022/03/15 00:19:28;;;;;;;17.63;9.95;;;5.10;88.40;;;;;;5095919;28;20039;-78
2022/03/15 00:21:54;;;;;;;17.48;8.95;;;5.10;88.70;;;;;;5096233;28;20031;-78
2022/03/15 00:24:22;;;;;;;15.88;9.27;;;5.10;88.80;;;;;;5078782;28;20507;-78
2022/03/15 00:26:48;;;;;;;20.60;10.30;;;5.10;88.70;;;;;;5078916;28;20040;-78
2022/03/15 00:29:17;;;;;;;16.13;8.70;;;5.10;88.80;;;;;;5095668;28;20039;-78
2022/03/15 00:31:44;;;;;;;17.27;9.32;;;5.10;88.90;;;;;;5095628;28;20069;-78
2022/03/15 00:34:11;;;;;;;20.83;9.38;;;5.00;88.90;;;;;;5079112;28;20066;-78
2022/03/15 00:36:37;;;;;;;16.55;9.80;;;5.10;88.70;;;;;;5095712;28;20042;-77
2022/03/15 00:39:06;;;;;;;19.27;9.05;;;5.10;88.60;;;;;;5078709;28;20051;-78
2022/03/15 00:41:32;;;;;;;20.08;11.07;;;5.10;88.40;;;;;;5095536;28;20039;-77
2022/03/15 00:43:58;;;;;;;16.75;9.35;;;5.10;88.20;;;;;;5078707;28;20131;-77
2022/03/15 00:46:23;;;;;;;21.05;10.98;;;5.10;88.30;;;;;;5078633;28;20043;-77
2022/03/15 00:48:49;;;;;;;20.00;10.07;;;5.10;88.70;;;;;;5078531;28;20047;-78
2022/03/15 00:51:15;;;;;;;13.45;9.00;;;5.00;88.90;;;;;;5078627;28;20078;-79
2022/03/15 00:53:41;;;;;;;18.48;10.43;;;5.10;88.40;;;;;;5095583;28;20100;-78
2022/03/15 00:56:07;;;;;;;22.15;11.15;;;5.10;89.00;;;;;;5078668;28;20039;-77
2022/03/15 00:58:33;;;;;;;23.55;11.57;;;5.00;89.20;;;;;;5095496;28;20141;-78
2022/03/15 01:00:59;;;;;;;17.98;11.98;;;5.00;89.30;;;;;;5095529;28;20395;-77
2022/03/15 01:03:24;;;;;;;18.42;10.85;;;5.00;89.50;;;;;;5095238;28;20040;-78
2022/03/15 01:05:50;;;;;;;23.08;9.70;;;5.00;89.40;;;;;;5061732;28;20532;-77
2022/03/15 01:08:16;;;;;;;22.48;11.70;;;5.10;89.40;;;;;;5078473;28;20553;-77
2022/03/15 01:10:43;;;;;;;24.23;11.27;;;5.10;89.40;;;;;;5078257;28;20054;-78
2022/03/15 01:13:09;;;;;;;16.20;8.35;;;5.00;89.30;;;;;;5095497;28;20046;-78
2022/03/15 01:15:44;;;;;;;22.10;11.18;;;5.10;89.30;;;;;;5095192;28;20043;-78
2022/03/15 01:18:13;;;;;;;17.05;10.25;;;5.10;89.50;;;;;;5078234;28;20127;-78
2022/03/15 01:20:41;;;;;;;16.52;10.27;;;5.10;89.30;;;;;;5095107;28;20075;-78
2022/03/15 01:23:07;;;;;;;17.60;9.52;;;4.90;89.10;;;;;;5078596;28;20046;-78
2022/03/15 01:25:33;;;;;;;18.52;9.95;;;4.90;89.20;;;;;;5078284;28;20122;-78
2022/03/15 01:28:00;;;;;;;16.85;9.55;;;4.90;89.40;;;;;;5078350;28;20048;-78
2022/03/15 01:30:26;;;;;;;17.40;10.45;;;4.90;89.40;;;;;;5095348;28;20438;-78
2022/03/15 01:32:51;;;;;;;19.40;9.73;;;4.90;89.60;;;;;;5095473;28;20035;-78
2022/03/15 01:35:17;;;;;;;19.65;10.65;;;4.90;89.20;;;;;;5078289;28;20453;-77
2022/03/15 01:37:43;;;;;;;16.98;10.52;;;5.00;89.60;;;;;;5095352;28;20123;-77
2022/03/15 01:40:10;;;;;;;17.58;11.10;;;5.00;89.50;;;;;;5095047;28;20126;-77
2022/03/15 01:42:35;;;;;;;22.98;11.90;;;5.00;89.80;;;;;;5078263;28;20040;-77
2022/03/15 01:45:03;;;;;;;23.15;12.35;;;5.00;89.60;;;;;;5094843;28;20089;-78
2022/03/15 01:47:29;;;;;;;15.90;10.50;;;5.00;89.70;;;;;;5095124;28;20047;-77
2022/03/15 01:49:55;;;;;;;24.13;11.85;;;5.00;89.60;;;;;;5061281;28;20039;-77
2022/03/15 01:52:21;;;;;;;22.05;11.65;;;5.10;89.50;;;;;;5081692;28;20052;-77
2022/03/15 01:54:47;;;;;;;16.80;11.38;;;5.10;89.40;;;;;;5081860;28;20039;-77
2022/03/15 01:57:13;;;;;;;19.45;10.82;;;5.10;89.60;;;;;;5098554;28;20047;-77
2022/03/15 01:59:39;;;;;;;20.70;11.75;;;5.10;89.40;;;;;;5098645;28;20065;-77
2022/03/15 02:02:06;;;;;;;24.95;11.73;;;5.10;89.10;;;;;;5098853;28;20040;-77
2022/03/15 02:04:32;;;;;;;20.58;10.82;;;5.20;89.10;;;;;;5098633;28;20050;-77
2022/03/15 02:07:03;;;;;;;25.02;13.30;;;5.20;89.60;;;;;;5081592;28;20035;-77
2022/03/15 02:09:29;;;;;;;14.00;9.10;;;5.30;90.10;;;;;;5098187;28;20082;-77
2022/03/15 02:11:55;;;;;;;22.58;11.98;;;5.30;90.10;;;;;;5098370;28;20495;-77
2022/03/15 02:14:21;;;;;;;25.17;12.70;;;5.30;90.40;;;;;;5098569;28;20078;-77
2022/03/15 02:16:47;;;;;;;21.35;13.00;;;5.40;89.80;;;;;;5081603;28;20089;-77
2022/03/15 02:19:13;;;;;;;19.88;11.98;;;5.40;89.50;;;;;;5098200;28;20039;-77
2022/03/15 02:21:39;;;;;;;25.70;13.57;;;5.40;89.40;;;;;;5081260;28;20101;-77
2022/03/15 02:24:06;;;;;;;25.50;12.30;;;5.50;89.30;;;;;;5081119;28;20048;-78
2022/03/15 02:26:31;;;;;;;21.17;14.02;;;5.50;89.70;;;;;;5098091;28;20088;-78
2022/03/15 02:28:57;;;;;;;27.30;14.65;;;5.60;89.90;;;;;;5098014;28;20047;-77
2022/03/15 02:31:24;;;;;;;21.77;13.60;;;5.60;90.00;;;;;;5097804;28;20035;-77
2022/03/15 02:33:50;;;;;;;23.08;13.07;;;5.60;89.90;;;;;;5081167;28;20153;-77
2022/03/15 02:36:16;;;;;;;23.13;12.60;;;5.60;89.60;;;;;;5081029;28;20053;-78
2022/03/15 02:38:42;;;;;;;25.58;13.65;;;5.60;89.50;;;;;;5064374;28;20128;-77
2022/03/15 02:41:08;;;;;;;22.90;15.20;;;5.60;89.30;;;;;;5080882;28;20055;-77
2022/03/15 02:43:33;;;;;;;27.48;14.18;;;5.70;89.70;;;;;;5097496;28;20051;-77
2022/03/15 02:45:59;;;;;;;17.27;10.55;;;5.70;89.90;;;;;;5097832;28;20190;-77
2022/03/15 02:48:25;;;;;;;22.60;12.60;;;5.70;89.70;;;;;;5097848;28;20043;-78
2022/03/15 02:50:50;;;;;;;17.48;12.05;;;5.70;89.60;;;;;;5097818;28;20036;-77
2022/03/15 02:53:16;;;;;;;18.75;12.05;;;5.80;89.60;;;;;;5097636;28;20143;-77
2022/03/15 02:55:43;;;;;;;21.95;14.00;;;5.80;89.40;;;;;;5080933;28;20024;-77
2022/03/15 02:58:09;;;;;;;21.83;13.40;;;5.80;89.70;;;;;;5097444;28;20061;-77
2022/03/15 03:00:35;;;;;;;25.17;14.20;;;5.80;89.70;;;;;;5080693;28;20044;-77
2022/03/15 03:03:02;;;;;;;19.33;10.95;;;5.80;89.70;;;;;;5097128;28;20043;-77
2022/03/15 03:05:27;;;;;;;27.80;13.13;;;5.80;89.60;;;;;;5097389;28;20044;-78
2022/03/15 03:07:54;;;;;;;23.55;13.35;;;5.90;89.70;;;;;;5063973;28;20036;-77
2022/03/15 03:10:20;;;;;;;30.30;14.73;;;5.80;89.80;;;;;;5080254;28;20050;-77
2022/03/15 03:12:48;;;;;;;22.08;12.15;;;5.90;89.80;;;;;;5064138;28;20039;-77
2022/03/15 03:15:15;;;;;;;18.35;11.80;;;5.90;89.70;;;;;;5097361;28;20047;-77
2022/03/15 03:17:41;;;;;;;24.17;13.70;;;5.90;89.60;;;;;;5097157;28;20051;-77
2022/03/15 03:20:09;;;;;;;24.10;15.10;;;6.00;89.70;;;;;;5097121;28;20040;-77
2022/03/15 03:22:36;;;;;;;20.63;13.60;;;6.00;89.50;;;;;;5080522;28;20043;-77
2022/03/15 03:25:04;;;;;;;16.00;10.30;;;6.00;89.70;;;;;;5097249;28;20103;-77
2022/03/15 03:27:29;;;;;;;20.48;13.50;;;6.00;89.50;;;;;;5096656;28;20043;-78
2022/03/15 03:29:57;;;;;;;24.83;12.32;;;6.00;89.50;;;;;;5080072;28;20122;-77
2022/03/15 03:32:23;;;;;;;21.48;13.60;;;6.10;89.60;;;;;;5096898;28;20051;-77
2022/03/15 03:34:49;;;;;;;21.20;14.05;;;6.10;89.80;;;;;;5079985;28;20404;-78
2022/03/15 03:37:15;;;;;;;19.88;11.20;;;6.10;89.90;;;;;;5080161;28;20039;-77
2022/03/15 03:39:40;;;;;;;19.80;13.00;;;6.10;89.70;;;;;;5096766;28;20613;-77
2022/03/15 03:42:06;;;;;;;19.75;11.82;;;6.10;89.60;;;;;;5096977;28;20040;-78
2022/03/15 03:44:33;;;;;;;33.05;13.45;;;6.10;89.50;;;;;;5096576;28;20514;-77
2022/03/15 03:46:59;;;;;;;14.95;10.27;;;6.20;89.50;;;;;;5096572;28;20043;-78
2022/03/15 03:49:25;;;;;;;21.10;12.40;;;6.20;89.40;;;;;;5079525;28;20050;-77
2022/03/15 03:51:50;;;;;;;25.75;16.05;;;6.20;89.50;;;;;;5079814;28;20043;-77
2022/03/15 03:54:16;;;;;;;24.98;15.55;;;6.10;89.50;;;;;;5096721;28;20034;-77
2022/03/15 03:56:42;;;;;;;19.13;14.60;;;6.20;89.50;;;;;;5096606;28;20088;-77
2022/03/15 03:59:08;;;;;;;26.35;14.95;;;6.10;89.50;;;;;;5096249;28;20407;-78
2022/03/15 04:01:34;;;;;;;22.65;13.48;;;6.10;89.50;;;;;;5079427;28;20074;-77
2022/03/15 04:04:05;;;;;;;15.68;12.23;;;6.10;89.50;;;;;;5096393;28;20047;-77
2022/03/15 04:06:31;;;;;;;15.93;11.75;;;6.10;89.40;;;;;;5079542;28;20384;-77
2022/03/15 04:08:59;;;;;;;20.42;12.60;;;6.10;89.30;;;;;;5095912;28;20450;-78
2022/03/15 04:11:25;;;;;;;25.75;14.10;;;6.10;89.30;;;;;;5079707;28;20400;-78
2022/03/15 04:13:51;;;;;;;29.45;15.60;;;6.10;89.50;;;;;;5078466;28;20039;-77
2022/03/15 04:16:17;;;;;;;31.30;16.45;;;6.10;89.50;;;;;;5079305;28;20035;-77
2022/03/15 04:18:43;;;;;;;27.35;13.13;;;6.10;89.50;;;;;;5062618;28;20096;-77
2022/03/15 04:21:10;;;;;;;20.88;14.82;;;6.10;89.40;;;;;;5095768;28;20048;-77
2022/03/15 04:23:35;;;;;;;24.10;12.68;;;6.10;89.40;;;;;;5079276;28;20036;-78
2022/03/15 04:26:01;;;;;;;28.95;15.77;;;6.10;89.20;;;;;;5095916;28;20110;-78
2022/03/15 04:28:27;;;;;;;19.58;12.15;;;6.00;89.20;;;;;;5078885;28;20047;-77
2022/03/15 04:30:52;;;;;;;24.98;13.75;;;6.00;89.50;;;;;;5095697;28;20180;-77
2022/03/15 04:33:18;;;;;;;20.65;14.73;;;6.00;89.50;;;;;;5095741;28;20035;-78
2022/03/15 04:35:44;;;;;;;22.25;14.52;;;6.00;89.60;;;;;;5078927;28;20042;-77
2022/03/15 04:38:10;;;;;;;23.13;16.38;;;6.00;89.80;;;;;;5095421;28;20082;-77
2022/03/15 04:40:35;;;;;;;25.25;16.67;;;5.90;89.90;;;;;;5079040;28;20049;-77
2022/03/15 04:43:01;;;;;;;24.80;14.70;;;5.80;90.00;;;;;;5095499;28;20031;-78
2022/03/15 04:45:27;;;;;;;24.60;15.48;;;5.90;90.10;;;;;;5095849;28;20044;-77
2022/03/15 04:47:53;;;;;;;23.80;15.52;;;5.80;89.80;;;;;;5095692;28;20040;-77
2022/03/15 04:50:19;;;;;;;22.10;13.40;;;5.90;89.70;;;;;;5078620;28;20541;-78
2022/03/15 04:52:45;;;;;;;23.02;14.35;;;5.80;89.70;;;;;;5095682;28;20043;-78
2022/03/15 04:55:11;;;;;;;25.33;17.35;;;5.80;89.70;;;;;;5095394;28;20100;-78
2022/03/15 04:57:37;;;;;;;21.25;13.25;;;5.80;90.00;;;;;;5061837;28;20042;-78
2022/03/15 05:00:09;;;;;;;20.27;12.27;;;5.80;89.80;;;;;;5095597;28;20129;-77
2022/03/15 05:02:36;;;;;;;28.65;16.00;;;5.80;89.60;;;;;;5078775;28;20086;-78
2022/03/15 05:05:03;;;;;;;25.65;14.60;;;5.80;89.80;;;;;;5095320;28;20476;-78
2022/03/15 05:07:29;;;;;;;22.33;13.43;;;5.80;89.70;;;;;;5078305;28;20480;-78
2022/03/15 05:12:38;;;;;;;22.70;14.35;;;5.70;89.90;;;;;;5095435;28;20047;-78
2022/03/15 05:15:05;;;;;;;28.80;17.48;;;5.70;89.90;;;;;;5095298;28;20376;-78
2022/03/15 05:17:31;;;;;;;25.50;18.00;;;5.80;89.90;;;;;;5095117;28;20043;-78
2022/03/15 05:19:58;;;;;;;26.45;18.25;;;5.80;90.30;;;;;;5095405;28;20047;-77
2022/03/15 05:22:23;;;;;;;30.00;18.35;;;5.70;90.40;;;;;;5078456;28;20399;-78
2022/03/15 05:24:52;;;;;;;28.42;18.33;;;5.70;90.40;;;;;;5080388;28;20062;-78
2022/03/15 05:27:17;;;;;;;21.45;16.27;;;5.80;90.30;;;;;;5099518;28;20047;-78
2022/03/15 05:29:43;;;;;;;23.63;13.40;;;5.80;90.00;;;;;;5082258;28;20409;-78
2022/03/15 05:32:09;;;;;;;25.92;17.40;;;5.80;90.00;;;;;;5099498;28;20035;-78
2022/03/15 05:34:35;;;;;;;28.50;17.23;;;5.80;90.20;;;;;;5099140;28;20442;-78
2022/03/15 05:37:01;;;;;;;20.77;14.07;;;5.80;90.20;;;;;;5049371;28;20089;-78
2022/03/15 05:39:27;;;;;;;24.00;14.13;;;5.80;90.10;;;;;;5082310;28;20487;-78
2022/03/15 05:41:52;;;;;;;23.70;17.00;;;5.80;89.90;;;;;;5099095;28;20118;-78
2022/03/15 05:44:18;;;;;;;21.23;15.02;;;5.80;90.10;;;;;;5082198;28;20171;-78
2022/03/15 05:46:44;;;;;;;20.58;13.00;;;5.80;90.00;;;;;;5099185;28;20039;-77
2022/03/15 05:49:09;;;;;;;16.60;11.88;;;5.80;89.90;;;;;;5098585;28;20100;-78
2022/03/15 05:51:35;;;;;;;28.92;15.88;;;5.80;89.70;;;;;;5082074;28;20062;-78
2022/03/15 05:54:01;;;;;;;20.75;14.18;;;5.70;89.80;;;;;;5098874;28;20498;-78
2022/03/15 05:56:27;;;;;;;25.20;16.85;;;5.70;89.70;;;;;;5098775;28;20492;-78
2022/03/15 05:58:52;;;;;;;23.58;15.65;;;5.80;89.90;;;;;;5081434;28;20040;-77
2022/03/15 06:01:18;;;;;;;23.65;13.98;;;5.70;89.80;;;;;;5098434;28;20065;-78
2022/03/15 06:03:44;;;;;;;25.73;16.45;;;5.70;89.90;;;;;;5098796;28;20036;-78
2022/03/15 06:06:09;;;;;;;26.02;18.15;;;5.70;89.80;;;;;;5098567;28;20423;-78
2022/03/15 06:08:36;;;;;;;27.23;18.38;;;5.70;90.00;;;;;;5064822;28;20372;-78
2022/03/15 06:11:02;;;;;;;26.65;17.58;;;5.70;90.10;;;;;;5098336;28;20052;-78
2022/03/15 06:13:28;;;;;;;25.23;13.82;;;5.70;90.10;;;;;;5098692;28;20388;-79
2022/03/15 06:15:54;;;;;;;30.48;19.00;;;5.70;89.80;;;;;;5098028;28;20043;-78
2022/03/15 06:18:20;;;;;;;21.23;15.23;;;5.70;90.50;;;;;;5064772;28;20043;-78
2022/03/15 06:20:46;;;;;;;23.15;13.80;;;5.70;90.30;;;;;;5081457;28;20567;-76
2022/03/15 06:23:13;;;;;;;26.65;16.48;;;5.70;90.20;;;;;;5098195;28;20096;-78
2022/03/15 06:25:38;;;;;;;26.52;17.35;;;5.70;90.50;;;;;;5081734;28;20452;-78
2022/03/15 06:28:04;;;;;;;29.65;17.98;;;5.80;90.60;;;;;;5081186;28;20075;-77
2022/03/15 06:30:30;;;;;;;28.98;17.98;;;5.70;90.50;;;;;;5098149;28;20080;-78
2022/03/15 06:32:56;;;;;;;26.58;16.48;;;5.70;90.40;;;;;;5098722;28;20054;-77
2022/03/15 06:35:22;;;;;;;29.45;16.85;;;5.80;90.70;;;;;;5098086;28;20042;-79
2022/03/15 06:37:50;;;;;;;27.02;16.45;;;5.70;90.50;;;;;;5097188;28;20036;-77
2022/03/15 06:40:24;;;;;;;26.10;15.65;;;5.80;90.40;;;;;;5097889;28;20039;-77
2022/03/15 06:42:54;;;;;;;28.27;19.33;;;5.70;90.60;;;;;;5098109;28;20083;-78
2022/03/15 06:45:20;;;;;;;24.42;16.88;;;5.80;90.80;;;;;;5098406;28;20407;-78
2022/03/15 06:47:45;;;;;;;31.75;19.85;;;5.80;90.30;;;;;;5080734;28;20047;-77
2022/03/15 06:50:12;;;;;;;35.05;18.50;;;5.80;90.90;;;;;;5080995;28;20133;-77
2022/03/15 06:52:39;;;;;;;31.00;19.58;;;5.80;90.80;;;;;;5072946;28;20088;-77
2022/03/15 06:55:06;;;;;;;31.65;17.63;;;5.90;90.40;;;;;;5084418;28;20055;-78
2022/03/15 06:57:33;;;;;;;30.38;20.17;;;5.90;90.50;;;;;;5077914;28;20075;-78
2022/03/15 07:00:00;;;;;;;32.20;19.75;;;6.00;90.40;;;;;;5083025;28;21242;-78
2022/03/15 07:02:27;;;;;;;31.40;18.50;;;6.00;90.50;;;;;;5064882;28;20227;-78
2022/03/15 07:04:52;;;;;;;27.42;18.13;;;6.00;90.40;;;;;;5079999;28;20708;-77
2022/03/15 07:07:19;;;;;;;34.47;18.63;;;6.10;90.40;;;;;;5066960;28;20047;-78
2022/03/15 07:09:45;;;;;;;35.28;19.77;;;6.10;90.80;;;;;;5073856;28;20056;-77
2022/03/15 07:12:11;;;;;;;29.55;19.42;;;6.10;90.50;;;;;;5059279;28;20055;-79
2022/03/15 07:14:37;;;;;;;32.78;20.77;;;6.10;90.80;;;;;;5076297;28;20032;-77
2022/03/15 07:17:03;;;;;;;29.77;19.17;;;6.10;90.80;;;;;;5074801;28;20546;-78
2022/03/15 07:19:29;;;;;;;35.35;19.77;;;6.10;91.00;;;;;;5074267;28;20314;-77
2022/03/15 07:21:55;;;;;;;31.45;19.83;;;6.20;90.90;;;;;;5040512;28;20063;-79
2022/03/15 07:24:21;;;;;;;28.85;20.08;;;6.30;90.80;;;;;;5075830;28;20071;-78
2022/03/15 07:26:47;;;;;;;36.30;20.27;;;6.30;90.80;;;;;;5061362;28;20040;-77
2022/03/15 07:29:12;;;;;;;29.67;19.70;;;6.40;90.80;;;;;;5081746;28;20044;-78
2022/03/15 07:31:38;;;;;;;33.38;19.67;;;6.40;90.80;;;;;;5057658;28;20040;-78
2022/03/15 07:34:04;;;;;;;32.72;20.88;;;6.40;90.80;;;;;;5062349;28;20056;-79
2022/03/15 07:36:29;;;;;;;30.10;19.52;;;6.40;90.90;;;;;;5063818;28;20467;-78
2022/03/15 07:38:55;;;;;;;30.55;18.85;;;6.50;90.80;;;;;;5078342;28;20059;-78
2022/03/15 07:41:23;;;;;;;34.00;18.95;;;6.50;90.90;;;;;;5076818;28;20040;-79
2022/03/15 07:43:49;;;;;;;28.75;19.50;;;6.50;90.90;;;;;;5072958;28;20055;-79
2022/03/15 07:46:15;;;;;;;34.17;18.52;;;6.60;90.60;;;;;;5065331;28;20090;-78
2022/03/15 07:48:41;;;;;;;31.20;18.27;;;6.60;90.90;;;;;;5074284;28;20044;-79
2022/03/15 07:51:07;;;;;;;35.90;20.58;;;6.70;90.80;;;;;;5076016;28;20139;-78
2022/03/15 07:53:32;;;;;;;28.73;17.77;;;6.70;91.00;;;;;;5054249;28;20040;-79
2022/03/15 07:56:01;;;;;;;25.83;15.88;;;6.80;90.70;;;;;;5060472;28;20045;-78
2022/03/15 07:58:27;;;;;;;24.25;16.25;;;6.80;90.60;;;;;;5077081;28;20093;-78
2022/03/15 08:00:56;;;;;;;29.35;16.23;;;6.90;90.60;;;;;;5061363;28;20055;-78
2022/03/15 08:03:23;;;;;;;23.52;15.63;;;6.90;90.20;;;;;;5075860;28;20484;-77
2022/03/15 08:05:50;;;;;;;32.90;16.23;;;6.90;90.10;;;;;;5043007;28;20048;-78
2022/03/15 08:08:16;;;;;;;31.67;17.98;;;7.00;90.20;;;;;;5078053;28;20442;-79
2022/03/15 08:10:43;;;;;;;33.95;18.00;;;7.00;90.30;;;;;;5059918;28;20064;-79
2022/03/15 08:13:09;;;;;;;36.90;19.25;;;7.00;90.60;;;;;;5072736;28;20037;-79
2022/03/15 08:15:35;;;;;;;30.92;16.83;;;7.10;90.70;;;;;;5079345;28;20050;-79
2022/03/15 08:18:03;;;;;;;28.75;18.48;;;7.10;90.60;;;;;;5061161;28;20446;-79
2022/03/15 08:20:41;;;;;;;34.53;17.20;;;7.10;90.90;;;;;;5080200;28;20054;-79
2022/03/15 08:23:12;;;;;;;27.02;15.63;;;7.20;90.20;;;;;;5075283;28;20132;-78
2022/03/15 08:25:37;;;;;;;25.15;17.88;;;7.20;90.30;;;;;;5059666;28;20054;-79
2022/03/15 08:28:03;;;;;;;27.77;17.45;;;7.30;90.30;;;;;;5073553;28;20408;-79
2022/03/15 08:30:29;;;;;;;28.15;18.05;;;7.30;90.20;;;;;;5060050;28;20114;-79
2022/03/15 08:32:55;;;;;;;31.17;20.05;;;7.40;90.60;;;;;;5071643;28;20044;-79
2022/03/15 08:35:22;;;;;;;32.47;19.33;;;7.40;90.40;;;;;;5060244;28;20028;-79
2022/03/15 08:37:50;;;;;;;36.00;20.83;;;7.40;90.20;;;;;;5045715;28;20131;-77
2022/03/15 08:40:20;;;;;;;31.85;19.90;;;7.50;90.40;;;;;;5063678;28;20040;-79
2022/03/15 08:42:46;;;;;;;39.13;23.73;;;7.50;89.90;;;;;;5077980;28;20127;-79
2022/03/15 08:45:12;;;;;;;35.88;23.67;;;7.60;90.20;;;;;;5057908;28;20461;-80
2022/03/15 08:47:39;;;;;;;40.90;23.27;;;7.60;90.60;;;;;;5076483;28;20068;-79
2022/03/15 08:50:07;;;;;;;42.33;25.33;;;7.70;90.30;;;;;;5064269;28;20098;-79
2022/03/15 08:52:33;;;;;;;44.30;25.35;;;7.70;89.90;;;;;;5042250;28;20087;-79
2022/03/15 08:54:59;;;;;;;35.88;23.30;;;7.80;89.90;;;;;;5059301;28;20628;-79
2022/03/15 08:57:25;;;;;;;44.05;27.92;;;7.80;90.10;;;;;;5076858;28;20048;-79
2022/03/15 08:59:51;;;;;;;41.58;25.73;;;7.90;90.60;;;;;;5074288;28;20041;-80
2022/03/15 09:02:17;;;;;;;39.97;24.80;;;7.90;90.10;;;;;;5061642;28;20395;-80
2022/03/15 09:04:46;;;;;;;42.20;26.60;;;8.00;90.00;;;;;;5055414;28;20040;-79
2022/03/15 09:07:12;;;;;;;43.53;26.52;;;8.00;89.90;;;;;;5060147;28;20384;-80
2022/03/15 09:09:37;;;;;;;41.65;24.33;;;8.00;90.60;;;;;;5060592;28;20055;-80
2022/03/15 09:12:05;;;;;;;39.88;25.38;;;8.10;90.50;;;;;;5064731;28;20075;-80
2022/03/15 09:14:31;;;;;;;43.58;27.73;;;8.10;90.30;;;;;;5063209;28;20088;-79
2022/03/15 09:16:57;;;;;;;38.45;23.23;;;8.20;89.90;;;;;;5062935;28;20040;-80
2022/03/15 09:19:26;;;;;;;39.72;25.45;;;8.20;89.60;;;;;;5077844;28;20040;-80
2022/03/15 09:21:52;;;;;;;42.00;26.58;;;8.30;90.10;;;;;;5083077;28;20051;-79
2022/03/15 09:24:17;;;;;;;37.63;24.27;;;8.50;89.90;;;;;;5076307;28;20401;-80
2022/03/15 09:26:43;;;;;;;37.65;25.40;;;8.50;89.60;;;;;;5065222;28;20417;-79
2022/03/15 09:29:12;;;;;;;39.42;27.17;;;8.60;89.40;;;;;;5080751;28;20494;-78
2022/03/15 09:31:39;;;;;;;38.78;25.20;;;8.60;89.10;;;;;;5062017;28;20047;-79
2022/03/15 09:34:05;;;;;;;42.20;27.25;;;8.70;89.10;;;;;;5057056;28;20688;-79
2022/03/15 09:36:30;;;;;;;40.90;25.63;;;8.80;89.00;;;;;;5080218;28;20070;-80
2022/03/15 09:38:57;;;;;;;40.78;25.45;;;8.90;88.80;;;;;;5083965;28;20074;-78
2022/03/15 09:41:25;;;;;;;40.53;23.83;;;9.00;88.70;;;;;;5080818;28;20496;-79
2022/03/15 09:43:53;;;;;;;40.05;25.45;;;9.10;88.40;;;;;;5093332;28;20495;-78
2022/03/15 09:46:21;;;;;;;36.47;24.90;;;9.20;87.50;;;;;;5078132;28;20047;-80
2022/03/15 09:48:52;;;;;;;37.58;24.63;;;9.20;87.90;;;;;;5095017;28;20048;-80
2022/03/15 09:51:18;;;;;;;38.58;25.80;;;9.30;87.60;;;;;;5094901;28;20043;-80
2022/03/15 09:53:46;;;;;;;38.53;24.95;;;9.30;87.30;;;;;;5094857;28;20038;-79
2022/03/15 09:56:15;;;;;;;37.17;24.15;;;9.30;87.20;;;;;;5095013;28;20040;-80
2022/03/15 09:58:41;;;;;;;38.30;26.42;;;9.30;87.20;;;;;;5094752;28;20130;-79
2022/03/15 10:01:11;;;;;;;41.00;26.40;;;9.40;87.20;;;;;;5094748;28;20555;-79
2022/03/15 10:03:37;;;;;;;41.88;25.77;;;9.40;87.30;;;;;;5095024;28;20046;-79
2022/03/15 10:06:02;;;;;;;40.28;26.50;;;9.50;87.20;;;;;;5078250;28;20391;-79
2022/03/15 10:08:28;;;;;;;38.22;25.95;;;9.50;87.20;;;;;;5077709;28;20488;-78
2022/03/15 10:10:54;;;;;;;37.63;25.15;;;9.60;87.20;;;;;;5061066;28;20059;-80
2022/03/15 10:13:20;;;;;;;38.05;23.42;;;9.60;87.20;;;;;;5081158;28;20039;-80
2022/03/15 10:15:54;;;;;;;32.45;23.58;;;9.60;87.10;;;;;;5081807;28;20039;-79
2022/03/15 10:18:20;;;;;;;40.17;25.95;;;9.70;86.90;;;;;;5081444;28;20118;-79
2022/03/15 10:20:46;;;;;;;40.90;25.95;;;9.70;86.70;;;;;;5098117;28;20039;-79
2022/03/15 10:23:15;;;;;;;35.83;25.42;;;9.70;86.60;;;;;;5065054;28;20213;-80
2022/03/15 10:25:50;;;;;;;37.42;27.15;;;9.80;86.70;;;;;;5081269;28;20044;-80
2022/03/15 10:28:16;;;;;;;36.10;24.80;;;9.90;86.80;;;;;;5081070;28;20368;-80
2022/03/15 10:30:44;;;;;;;39.25;24.55;;;10.00;86.40;;;;;;5081259;28;20043;-78
2022/03/15 10:33:10;;;;;;;40.22;28.08;;;10.00;86.20;;;;;;5081648;28;20039;-80
2022/03/15 10:35:49;;;;;;;38.70;27.90;;;10.00;86.10;;;;;;5081587;28;20031;-80
2022/03/15 10:38:15;;;;;;;37.97;25.50;;;10.00;86.10;;;;;;5081344;28;20036;-79
2022/03/15 10:40:50;;;;;;;35.78;26.45;;;10.00;85.90;;;;;;5097890;28;20070;-79
2022/03/15 10:43:24;;;;;;;41.70;27.00;;;10.10;85.90;;;;;;5098185;28;20046;-80
2022/03/15 10:45:56;;;;;;;39.53;27.55;;;10.10;85.80;;;;;;5080928;28;20031;-80
2022/03/15 10:48:29;;;;;;;33.97;25.98;;;10.10;85.50;;;;;;5097741;28;20039;-80
2022/03/15 10:51:14;;;;;;;31.80;24.48;;;10.10;85.60;;;;;;5080758;28;20036;-80
2022/03/15 10:53:42;;;;;;;33.38;23.08;;;10.10;85.30;;;;;;5080812;28;20039;-79
2022/03/15 10:56:23;;;;;;;35.17;24.60;;;10.00;84.20;;;;;;5097636;28;20491;-79
2022/03/15 10:58:59;;;;;;;38.85;24.30;;;10.00;84.90;;;;;;5097573;28;20043;-80
2022/03/15 11:01:26;;;;;;;34.55;23.05;;;9.90;83.80;;;;;;5097605;28;20036;-80
2022/03/15 11:04:06;;;;;;;44.30;30.60;;;9.80;84.50;;;;;;5064074;28;20522;-79
2022/03/15 11:06:37;;;;;;;38.17;25.58;;;9.80;84.50;;;;;;5080792;28;20147;-80
2022/03/15 11:09:22;;;;;;;34.40;23.75;;;9.80;84.80;;;;;;5097250;28;20040;-78
2022/03/15 11:12:04;;;;;;;48.50;27.77;;;9.80;84.80;;;;;;5097178;28;20056;-79
2022/03/15 11:14:36;;;;;;;38.60;26.95;;;9.80;84.90;;;;;;5080749;28;20134;-81
2022/03/15 11:17:06;;;;;;;34.13;26.17;;;9.80;84.80;;;;;;5097429;28;20070;-80
2022/03/15 11:19:36;;;;;;;35.08;25.17;;;9.80;84.90;;;;;;5080686;28;20048;-80
2022/03/15 11:22:03;;;;;;;40.25;25.70;;;9.80;85.10;;;;;;5096991;28;20039;-79
2022/03/15 11:24:36;;;;;;;32.92;24.15;;;9.90;85.30;;;;;;5097329;28;20055;-81
2022/03/15 11:27:06;;;;;;;33.30;22.38;;;9.90;85.40;;;;;;5097115;28;20047;-79
2022/03/15 11:29:33;;;;;;;31.42;23.38;;;9.90;85.50;;;;;;5097111;28;20051;-80
2022/03/15 11:31:59;;;;;;;34.88;22.85;;;9.90;85.20;;;;;;5096932;28;20122;-79
2022/03/15 11:34:25;;;;;;;28.50;20.40;;;9.90;85.40;;;;;;5080030;28;20115;-79
2022/03/15 11:36:53;;;;;;;32.35;19.00;;;10.00;85.40;;;;;;5096852;28;20035;-80
2022/03/15 11:39:19;;;;;;;27.55;18.63;;;10.00;85.10;;;;;;5097014;28;20040;-78
2022/03/15 11:41:46;;;;;;;28.55;18.42;;;10.00;85.10;;;;;;5082771;28;20079;-79
2022/03/15 11:44:35;;;;;;;25.40;18.98;;;10.00;85.10;;;;;;5103619;28;20047;-79
2022/03/15 11:47:27;;;;;;;26.80;17.50;;;10.10;85.00;;;;;;5085211;28;20071;-79
2022/03/15 11:50:02;;;;;;;33.80;22.20;;;10.20;85.00;;;;;;5079737;28;20044;-80
2022/03/15 11:52:37;;;;;;;32.53;23.83;;;10.20;85.10;;;;;;5079772;28;20042;-80
2022/03/15 11:55:36;;;;;;;31.75;22.75;;;10.30;85.00;;;;;;5096537;28;20035;-80
2022/03/15 11:58:04;;;;;;;34.75;22.90;;;10.30;84.90;;;;;;5079764;28;20122;-79
2022/03/15 12:00:47;;;;;;;26.35;19.05;;;10.40;85.10;;;;;;5079538;28;20044;-79
2022/03/15 12:03:19;;;;;;;30.77;19.15;;;10.50;85.10;;;;;;5080612;28;20498;-79
2022/03/15 12:05:48;;;;;;;23.10;16.63;;;10.50;85.20;;;;;;5096542;28;20035;-79
2022/03/15 12:08:26;;;;;;;22.27;17.08;;;10.60;85.20;;;;;;5096114;28;20039;-79
2022/03/15 12:11:03;;;;;;;25.70;16.60;;;10.60;85.10;;;;;;5095850;28;20091;-79
2022/03/15 12:13:43;;;;;;;21.52;14.73;;;10.70;85.20;;;;;;5079263;28;20035;-78
2022/03/15 12:16:13;;;;;;;20.63;13.77;;;10.80;85.30;;;;;;5096211;28;20092;-79
2022/03/15 12:18:48;;;;;;;22.45;14.77;;;11.00;85.10;;;;;;5095853;28;20044;-79
2022/03/15 12:21:15;;;;;;;26.50;17.25;;;11.20;84.80;;;;;;5096316;28;20403;-79
2022/03/15 12:23:48;;;;;;;20.13;14.95;;;11.50;84.50;;;;;;5095937;28;20051;-79
2022/03/15 12:26:30;;;;;;;19.05;12.98;;;11.60;84.40;;;;;;5095977;28;20046;-79
2022/03/15 12:29:14;;;;;;;14.50;10.38;;;11.70;84.10;;;;;;5095697;28;20048;-80
2022/03/15 12:31:41;;;;;;;;;;;11.90;83.80;;;;;;5096489;28;20097;-79
2022/03/15 12:34:18;;;;;;;17.23;11.30;;;11.90;82.70;;;;;;5095246;28;19967;-79
2022/03/15 12:36:51;;;;;;;18.02;12.60;;;12.00;83.10;;;;;;5096132;28;20047;-79
2022/03/15 12:39:22;;;;;;;13.82;9.40;;;12.00;82.80;;;;;;5095586;28;20040;-79
2022/03/15 12:42:08;;;;;;;12.80;9.20;;;12.00;82.90;;;;;;5095849;28;20035;-79